Mount Holly, New Jersey
Current Conditions -  °F | °C
As of 6:54 AM on Friday 21 Nov 2014 (Local Time) from KVAY Reporting Station
Clear Clear  
Wind Chill: 19°   Ceiling: Unl
Heat Index: 28°   Visibility: 10mi
Dew Point:   Wind: 9mph
Humidity: 43%   Direction: 260°W
Pressure: 30.26"   Gusts: NA
Location:  39.99°N, 74.79°W
Report Text: KVAY 211154Z AUTO 26008KT 10SM CLR M02/M13 A3026 RMK AO2 SLP249 T10221133 11011 21022 53035
Loading
Personal Weather Stations






























Interactive Weather Map New forecast layout! Learn more

10-Day Weather Forecast

Advertisements
Track Severe Weather on mobile